createdAt,value
2022-08-10T00:01:52.287Z,38.28
2022-08-10T00:04:21.463Z,38.56
2022-08-10T00:06:52.911Z,38.87
2022-08-10T00:09:20.027Z,38.94
2022-08-10T00:11:49.350Z,39.28
2022-08-10T00:14:20.685Z,39.37
2022-08-10T00:16:47.515Z,39.84
2022-08-10T00:19:16.467Z,39.95
2022-08-10T00:21:45.433Z,40.10
2022-08-10T00:24:16.441Z,39.96
2022-08-10T00:27:58.966Z,40.46
2022-08-10T00:29:35.162Z,40.52
2022-08-10T00:32:04.561Z,40.60
2022-08-10T00:34:37.686Z,40.72
2022-08-10T00:37:04.723Z,40.68
2022-08-10T00:39:36.071Z,40.71
2022-08-10T00:42:07.573Z,40.53
2022-08-10T00:44:42.076Z,40.76
2022-08-10T00:47:22.623Z,40.95
2022-08-10T00:50:01.279Z,40.93
2022-08-10T00:52:30.258Z,40.75
2022-08-10T00:54:57.546Z,41.21
2022-08-10T00:57:30.011Z,40.98
2022-08-10T00:59:57.609Z,41.06
2022-08-10T01:02:33.234Z,41.33
2022-08-10T01:05:03.364Z,41.52
2022-08-10T01:07:46.503Z,41.67
2022-08-10T01:10:54.727Z,42.13
2022-08-10T01:13:25.250Z,42.72
2022-08-10T01:16:33.756Z,42.37
2022-08-10T01:19:09.514Z,42.91
2022-08-10T01:21:56.572Z,42.56
2022-08-10T01:24:36.078Z,42.97
2022-08-10T01:27:15.209Z,43.43
2022-08-10T01:29:54.593Z,43.16
2022-08-10T01:32:36.303Z,43.68
2022-08-10T01:35:41.656Z,44.11
2022-08-10T01:38:09.295Z,43.62
2022-08-10T01:40:40.236Z,43.86
2022-08-10T01:43:10.151Z,43.83
2022-08-10T01:45:52.047Z,44.15
2022-08-10T01:48:29.413Z,44.16
2022-08-10T01:51:01.473Z,44.25
2022-08-10T01:53:42.315Z,44.49
2022-08-10T01:56:14.508Z,44.23
2022-08-10T01:58:42.659Z,44.36
2022-08-10T02:01:17.474Z,44.31
2022-08-10T02:04:01.673Z,44.71
2022-08-10T02:06:33.967Z,44.59
2022-08-10T02:09:06.199Z,44.50
2022-08-10T02:12:05.389Z,44.46
2022-08-10T02:14:33.910Z,44.41
2022-08-10T02:17:07.099Z,44.25
2022-08-10T02:19:36.092Z,44.76
2022-08-10T02:22:35.221Z,44.40
2022-08-10T02:24:52.699Z,44.76
2022-08-10T02:27:21.369Z,45.37
2022-08-10T02:29:51.006Z,45.24
2022-08-10T02:32:36.395Z,45.12
2022-08-10T02:35:07.901Z,45.45
2022-08-10T02:37:37.845Z,45.24
2022-08-10T02:40:05.454Z,45.55
2022-08-10T02:45:20.984Z,46.22
2022-08-10T02:45:57.075Z,45.81
2022-08-10T02:48:29.711Z,45.84
2022-08-10T02:51:02.609Z,45.84
2022-08-10T02:53:55.031Z,45.93
2022-08-10T02:56:25.819Z,46.52
2022-08-10T02:58:57.583Z,46.28
2022-08-10T03:01:29.672Z,46.39
2022-08-10T03:04:00.278Z,46.42
2022-08-10T03:06:36.800Z,46.54
2022-08-10T03:09:05.871Z,46.52
2022-08-10T03:12:35.660Z,47.00
2022-08-10T03:14:23.067Z,46.33
2022-08-10T03:16:55.731Z,46.35
2022-08-10T03:20:34.032Z,46.42
2022-08-10T03:22:11.004Z,46.52
2022-08-10T03:24:40.488Z,46.39
2022-08-10T03:27:10.869Z,46.57
2022-08-10T03:30:27.422Z,46.48
2022-08-10T03:32:30.373Z,46.50
2022-08-10T03:34:59.974Z,46.53
2022-08-10T03:37:32.317Z,46.49
2022-08-10T03:39:59.259Z,46.42
2022-08-10T03:42:28.126Z,46.52
2022-08-10T03:44:55.326Z,46.58
2022-08-10T03:47:24.690Z,46.44
2022-08-10T03:49:52.007Z,46.57
2022-08-10T03:52:19.240Z,46.54
2022-08-10T03:54:51.640Z,46.53
2022-08-10T03:57:18.452Z,46.80
2022-08-10T03:59:45.458Z,46.71
2022-08-10T04:02:44.345Z,46.64
2022-08-10T04:04:59.924Z,46.73
2022-08-10T04:07:36.245Z,46.94
2022-08-10T04:10:03.692Z,46.91
2022-08-10T04:12:30.420Z,46.62
2022-08-10T04:14:57.600Z,46.75
2022-08-10T04:18:05.223Z,46.59
2022-08-10T04:20:34.385Z,46.56
2022-08-10T04:23:09.438Z,46.68
2022-08-10T04:25:39.964Z,46.85
2022-08-10T04:28:08.038Z,46.75
2022-08-10T04:30:36.213Z,46.64
2022-08-10T04:33:07.283Z,46.77
2022-08-10T04:35:34.852Z,46.38
2022-08-10T04:38:03.635Z,46.59
2022-08-10T04:40:32.586Z,46.66
2022-08-10T04:43:11.650Z,46.63
2022-08-10T04:45:50.001Z,46.81
2022-08-10T04:48:43.270Z,46.86
2022-08-10T04:51:17.638Z,46.62
2022-08-10T04:54:03.226Z,46.76
2022-08-10T04:56:35.458Z,46.72
2022-08-10T04:59:02.668Z,46.66
2022-08-10T05:02:21.847Z,46.32
2022-08-10T05:04:35.057Z,46.49
2022-08-10T05:07:04.661Z,46.24
2022-08-10T05:09:31.347Z,46.33
2022-08-10T05:11:58.093Z,46.04
2022-08-10T05:14:25.277Z,46.15
2022-08-10T05:16:52.039Z,46.22
2022-08-10T05:19:21.198Z,46.16
2022-08-10T05:22:05.587Z,46.11
2022-08-10T05:24:33.271Z,45.92
2022-08-10T05:27:08.366Z,45.73
2022-08-10T05:29:39.726Z,45.76
2022-08-10T05:32:07.157Z,45.87
2022-08-10T05:34:33.954Z,45.71
2022-08-10T05:37:02.953Z,45.63
2022-08-10T05:39:32.444Z,45.47
2022-08-10T05:42:01.076Z,45.10
2022-08-10T05:44:31.042Z,45.37
2022-08-10T05:46:58.016Z,45.24
2022-08-10T05:49:25.506Z,45.12
2022-08-10T05:51:54.931Z,44.97
2022-08-10T05:54:21.796Z,44.95
2022-08-10T05:56:56.057Z,44.97
2022-08-10T06:00:11.302Z,44.41
2022-08-10T06:02:36.688Z,44.59
2022-08-10T06:05:10.907Z,44.29
2022-08-10T06:08:03.683Z,44.10
2022-08-10T06:10:32.962Z,44.20
2022-08-10T06:13:30.450Z,43.75
2022-08-10T06:16:04.833Z,43.86
2022-08-10T06:18:31.732Z,43.81
2022-08-10T06:21:01.873Z,43.52
2022-08-10T06:23:31.717Z,43.43
2022-08-10T06:26:11.755Z,43.41
2022-08-10T06:29:02.885Z,43.67
2022-08-10T06:31:48.165Z,42.91
2022-08-10T06:34:32.358Z,42.54
2022-08-10T06:37:03.744Z,42.84
2022-08-10T06:39:35.351Z,43.26
2022-08-10T06:42:17.932Z,42.12
2022-08-10T06:45:09.306Z,42.30
2022-08-10T06:47:51.956Z,42.34
2022-08-10T06:50:45.333Z,42.53
2022-08-10T06:53:19.233Z,42.23
2022-08-10T06:55:56.628Z,41.90
2022-08-10T06:58:27.276Z,40.99
2022-08-10T07:00:55.633Z,40.00
2022-08-10T07:03:26.914Z,40.79
2022-08-10T07:05:54.439Z,40.64
2022-08-10T07:08:23.485Z,40.57
2022-08-10T07:10:50.056Z,40.24
2022-08-10T07:14:14.233Z,39.98
2022-08-10T07:16:10.864Z,39.80
2022-08-10T07:18:39.251Z,39.62
2022-08-10T07:21:06.999Z,38.36
2022-08-10T07:23:55.943Z,38.39
2022-08-10T07:26:24.972Z,38.65
2022-08-10T07:28:52.316Z,38.95
2022-08-10T07:31:33.090Z,38.29
2022-08-10T07:34:09.458Z,38.47
2022-08-10T07:36:36.877Z,37.77
2022-08-10T07:39:05.556Z,38.04
2022-08-10T07:41:33.431Z,37.89
2022-08-10T07:44:04.582Z,37.67
2022-08-10T07:46:32.181Z,37.41
2022-08-10T07:49:15.334Z,36.95
2022-08-10T07:51:54.568Z,37.15
2022-08-10T07:54:24.250Z,37.10
2022-08-10T07:56:54.142Z,36.17
2022-08-10T07:59:26.621Z,36.51
2022-08-10T08:01:55.009Z,36.54
2022-08-10T08:04:22.951Z,36.66
2022-08-10T08:06:51.455Z,36.73
2022-08-10T08:09:19.711Z,35.78
2022-08-10T08:11:47.892Z,36.23
2022-08-10T08:14:18.783Z,35.31
2022-08-10T08:16:50.219Z,35.86
2022-08-10T08:19:37.373Z,35.68
2022-08-10T08:24:30.561Z,34.19
2022-08-10T08:24:55.852Z,35.30
2022-08-10T08:27:26.410Z,35.33
2022-08-10T08:29:53.675Z,35.05
2022-08-10T08:32:25.675Z,34.25
2022-08-10T08:34:59.070Z,35.08
2022-08-10T08:38:32.517Z,34.85
2022-08-10T08:40:28.125Z,35.00
2022-08-10T08:43:29.723Z,34.25
2022-08-10T08:46:10.132Z,34.29
2022-08-10T08:49:11.292Z,33.94
2022-08-10T08:52:07.330Z,34.11
2022-08-10T08:55:04.188Z,33.69
2022-08-10T08:58:03.079Z,32.97
2022-08-10T09:00:37.903Z,34.17
2022-08-10T09:03:27.966Z,33.06
2022-08-10T09:06:17.368Z,33.70
2022-08-10T09:09:12.502Z,33.34
2022-08-10T09:12:19.154Z,33.99
2022-08-10T09:15:01.113Z,32.89
2022-08-10T09:17:48.810Z,33.42
2022-08-10T09:20:35.365Z,33.33
2022-08-10T09:23:19.355Z,32.88
2022-08-10T09:25:54.877Z,33.43
2022-08-10T09:28:32.091Z,33.08
2022-08-10T09:36:24.405Z,32.76
2022-08-10T09:37:12.216Z,32.66
2022-08-10T09:40:48.447Z,31.68
2022-08-10T09:43:21.558Z,31.40
2022-08-10T09:45:53.625Z,32.31
2022-08-10T09:48:41.764Z,31.13
2022-08-10T09:51:48.702Z,31.30
2022-08-10T09:54:36.846Z,30.81
2022-08-10T09:57:54.809Z,30.51
2022-08-10T10:00:20.792Z,30.31
2022-08-10T10:03:27.959Z,29.12
2022-08-10T10:06:19.173Z,30.15
2022-08-10T10:09:11.023Z,29.27
2022-08-10T10:11:50.044Z,29.05
2022-08-10T10:14:56.766Z,29.29
2022-08-10T10:17:30.703Z,28.95
2022-08-10T10:20:09.286Z,28.98
2022-08-10T10:22:38.647Z,28.27
2022-08-10T10:25:20.614Z,29.31
2022-08-10T10:28:11.539Z,29.02
2022-08-10T10:31:00.977Z,27.84
2022-08-10T10:34:00.031Z,28.70
2022-08-10T10:36:27.732Z,28.22
2022-08-10T10:38:56.005Z,28.41
2022-08-10T10:42:03.212Z,28.05
2022-08-10T10:44:42.245Z,27.45
2022-08-10T10:47:30.414Z,26.91
2022-08-10T10:50:13.176Z,27.12
2022-08-10T10:52:55.224Z,27.00
2022-08-10T10:56:13.870Z,25.13
2022-08-10T10:58:38.664Z,25.45
2022-08-10T11:01:19.521Z,25.20
2022-08-10T11:04:06.180Z,26.02
2022-08-10T11:06:58.221Z,24.46
2022-08-10T11:10:05.018Z,25.37
2022-08-10T11:12:34.079Z,25.98
2022-08-10T11:15:42.693Z,25.97
2022-08-10T11:18:33.710Z,26.15
2022-08-10T11:21:15.188Z,24.27
2022-08-10T11:24:46.892Z,25.43
2022-08-10T11:26:49.115Z,23.71
2022-08-10T11:29:22.051Z,24.35
2022-08-10T11:31:56.772Z,23.77
2022-08-10T11:34:48.342Z,23.66
2022-08-10T11:38:30.893Z,22.25
2022-08-10T11:40:49.623Z,22.31
2022-08-10T11:43:17.253Z,21.99
2022-08-10T11:46:29.106Z,21.83
2022-08-10T11:49:17.946Z,21.39
2022-08-10T11:51:48.226Z,21.73
2022-08-10T11:54:26.700Z,21.22
2022-08-10T11:57:01.304Z,21.31
2022-08-10T11:59:51.631Z,21.57
2022-08-10T12:02:38.162Z,20.45
2022-08-10T12:05:17.248Z,19.97
2022-08-10T12:10:06.240Z,19.34
2022-08-10T12:10:49.740Z,19.71
2022-08-10T12:13:25.293Z,19.26
2022-08-10T12:16:05.170Z,18.28
2022-08-10T12:18:57.317Z,18.32
2022-08-10T12:21:31.966Z,18.10
2022-08-10T12:24:23.355Z,18.29
2022-08-10T12:26:59.909Z,18.20
2022-08-10T12:29:37.182Z,18.23
2022-08-10T12:32:29.427Z,19.19
2022-08-10T12:35:27.065Z,18.07
2022-08-10T12:38:08.592Z,17.58
2022-08-10T12:40:58.462Z,16.91
2022-08-10T12:44:07.612Z,17.83
2022-08-10T12:46:36.774Z,17.21
2022-08-10T12:49:15.630Z,17.34
2022-08-10T12:51:53.722Z,17.79
2022-08-10T12:54:31.925Z,16.04
2022-08-10T12:57:04.765Z,16.76
2022-08-10T12:59:32.415Z,17.71
2022-08-10T13:02:09.684Z,17.79
2022-08-10T13:04:38.695Z,16.74
2022-08-10T13:07:09.591Z,17.70
2022-08-10T13:09:55.584Z,17.42
2022-08-10T13:12:40.094Z,16.75
2022-08-10T13:15:25.449Z,15.18
2022-08-10T13:18:03.633Z,14.60
2022-08-10T13:20:34.657Z,14.39
2022-08-10T13:23:18.418Z,15.11
2022-08-10T13:25:48.704Z,16.25
2022-08-10T13:28:35.945Z,16.58
2022-08-10T13:31:16.752Z,16.64
2022-08-10T13:34:40.600Z,16.43
2022-08-10T13:36:43.314Z,15.37
2022-08-10T13:39:13.946Z,14.91
2022-08-10T13:41:43.408Z,14.24
2022-08-10T13:44:14.348Z,13.51
2022-08-10T13:46:54.382Z,12.47
2022-08-10T13:49:41.251Z,12.88
2022-08-10T13:52:18.434Z,13.21
2022-08-10T13:54:45.768Z,13.88
2022-08-10T13:57:22.963Z,14.20
2022-08-10T14:00:36.910Z,13.26
2022-08-10T14:03:00.160Z,12.93
2022-08-10T14:05:30.195Z,12.45
2022-08-10T14:08:01.504Z,11.53
2022-08-10T14:11:08.441Z,11.81
2022-08-10T14:13:27.104Z,11.08
2022-08-10T14:15:58.454Z,10.92
2022-08-10T14:18:26.461Z,10.85
2022-08-10T14:20:57.647Z,10.62
2022-08-10T14:23:24.496Z,10.62
2022-08-10T14:25:54.807Z,11.02
2022-08-10T14:28:42.369Z,10.05
2022-08-10T14:31:21.161Z,9.38
2022-08-10T14:33:54.602Z,10.49
2022-08-10T14:36:42.801Z,9.77
2022-08-10T14:39:13.818Z,8.86
2022-08-10T14:42:02.717Z,9.52
2022-08-10T14:44:31.962Z,9.96
2022-08-10T14:47:52.627Z,9.17
2022-08-10T14:49:57.845Z,10.07
2022-08-10T14:52:27.609Z,9.71
2022-08-10T14:54:57.320Z,9.72
2022-08-10T14:58:16.861Z,9.86
2022-08-10T15:00:29.353Z,9.43
2022-08-10T15:03:01.914Z,9.42
2022-08-10T15:05:39.850Z,9.70
2022-08-10T15:08:09.125Z,9.35
2022-08-10T15:10:40.114Z,9.50
2022-08-10T15:13:08.185Z,9.31
2022-08-10T15:16:12.163Z,8.93
2022-08-10T15:18:58.608Z,8.84
2022-08-10T15:21:35.728Z,8.73
2022-08-10T15:24:35.308Z,8.67
2022-08-10T15:27:05.720Z,8.67
2022-08-10T15:29:57.269Z,8.70
2022-08-10T15:32:54.417Z,8.36
2022-08-10T15:35:44.264Z,8.59
2022-08-10T15:38:20.472Z,8.69
2022-08-10T15:40:54.218Z,8.72
2022-08-10T15:43:36.980Z,9.14
2022-08-10T15:46:29.998Z,9.09
2022-08-10T15:49:00.997Z,9.65
2022-08-10T15:51:54.232Z,10.09
2022-08-10T15:54:33.642Z,10.65
2022-08-10T15:57:11.493Z,11.27
2022-08-10T15:59:45.200Z,11.29
2022-08-10T16:02:20.791Z,11.69
2022-08-10T16:05:17.957Z,12.79
2022-08-10T16:08:02.999Z,12.90
2022-08-10T16:10:38.956Z,13.30
2022-08-10T16:13:50.401Z,13.61
2022-08-10T16:15:58.241Z,13.94
2022-08-10T16:18:28.729Z,14.67
2022-08-10T16:21:03.545Z,15.07
2022-08-10T16:23:41.967Z,15.42
2022-08-10T16:26:20.505Z,15.90
2022-08-10T16:28:51.835Z,15.99
2022-08-10T16:31:24.789Z,16.33
2022-08-10T16:33:55.183Z,16.76
2022-08-10T16:36:28.958Z,16.87
2022-08-10T16:38:56.071Z,16.67
2022-08-10T16:42:03.639Z,17.18
2022-08-10T16:44:14.477Z,17.39
2022-08-10T16:46:44.957Z,17.83
2022-08-10T16:49:12.246Z,17.95
2022-08-10T16:51:39.809Z,18.13
2022-08-10T16:54:07.313Z,18.27
2022-08-10T16:56:48.994Z,18.31
2022-08-10T16:59:24.820Z,18.23
2022-08-10T17:01:54.197Z,18.40
2022-08-10T17:04:22.666Z,19.06
2022-08-10T17:06:56.185Z,19.04
2022-08-10T17:09:32.108Z,19.11
2022-08-10T17:12:16.205Z,19.44
2022-08-10T17:14:43.519Z,19.92
2022-08-10T17:17:22.168Z,20.25
2022-08-10T17:19:49.510Z,20.23
2022-08-10T17:22:20.182Z,20.29
2022-08-10T17:24:50.856Z,20.64
2022-08-10T17:28:04.479Z,20.81
2022-08-10T17:30:24.124Z,20.92
2022-08-10T17:33:12.771Z,21.41
2022-08-10T17:35:40.256Z,22.17
2022-08-10T17:38:10.584Z,21.67
2022-08-10T17:41:03.669Z,21.77
2022-08-10T17:43:46.663Z,22.18
2022-08-10T17:46:25.011Z,22.21
2022-08-10T17:48:53.352Z,22.40
2022-08-10T17:51:27.423Z,22.33
2022-08-10T17:54:00.891Z,22.48
2022-08-10T17:56:31.685Z,22.82
2022-08-10T17:59:01.691Z,22.90
2022-08-10T18:01:42.108Z,23.28
2022-08-10T18:04:19.555Z,23.55
2022-08-10T18:06:54.592Z,24.19
2022-08-10T18:09:32.643Z,24.02
2022-08-10T18:12:10.371Z,24.14
2022-08-10T18:14:45.645Z,24.40
2022-08-10T18:17:19.053Z,24.19
2022-08-10T18:19:47.411Z,24.19
2022-08-10T18:22:17.617Z,24.47
2022-08-10T18:24:45.387Z,24.54
2022-08-10T18:27:14.550Z,24.88
2022-08-10T18:29:44.421Z,24.79
2022-08-10T18:32:17.135Z,24.75
2022-08-10T18:34:47.832Z,25.16
2022-08-10T18:37:20.520Z,25.19
2022-08-10T18:39:51.422Z,25.27
2022-08-10T18:42:21.951Z,25.30
2022-08-10T18:44:54.168Z,25.46
2022-08-10T18:47:58.439Z,25.46
2022-08-10T18:50:31.832Z,25.55
2022-08-10T18:53:04.741Z,25.25
2022-08-10T18:56:08.823Z,25.97
2022-08-10T18:58:46.449Z,25.45
2022-08-10T19:01:36.590Z,25.93
2022-08-10T19:04:31.242Z,26.14
2022-08-10T19:07:29.119Z,26.01
2022-08-10T19:10:32.791Z,26.04
2022-08-10T19:13:16.446Z,25.84
2022-08-10T19:15:54.211Z,26.07
2022-08-10T19:18:45.955Z,26.68
2022-08-10T19:21:17.431Z,26.00
2022-08-10T19:23:54.779Z,26.63
2022-08-10T19:26:45.961Z,26.62
2022-08-10T19:30:11.235Z,26.82
2022-08-10T19:32:58.040Z,26.71
2022-08-10T19:36:03.641Z,27.16
2022-08-10T19:39:02.855Z,26.94
2022-08-10T19:41:44.646Z,27.12
2022-08-10T19:44:11.827Z,27.15
2022-08-10T19:47:01.158Z,27.69
2022-08-10T19:50:12.712Z,28.74
2022-08-10T19:53:18.650Z,28.92
2022-08-10T19:56:34.572Z,29.53
2022-08-10T20:00:17.659Z,29.75
2022-08-10T20:02:32.853Z,29.50
2022-08-10T20:05:14.704Z,29.50
2022-08-10T20:07:51.498Z,29.87
2022-08-10T20:10:46.022Z,30.10
2022-08-10T20:13:38.157Z,30.45
2022-08-10T20:16:13.493Z,30.07
2022-08-10T20:19:13.969Z,30.87
2022-08-10T20:21:47.252Z,30.28
2022-08-10T20:24:23.676Z,30.86
2022-08-10T20:27:08.864Z,30.80
2022-08-10T20:30:17.797Z,31.55
2022-08-10T20:32:59.923Z,31.65
2022-08-10T20:35:31.246Z,31.52
2022-08-10T20:38:38.622Z,31.96
2022-08-10T20:41:27.968Z,32.10
2022-08-10T20:44:14.905Z,32.06
2022-08-10T20:47:00.421Z,33.36
2022-08-10T20:49:39.513Z,33.44
2022-08-10T20:52:09.481Z,33.33
2022-08-10T20:54:43.623Z,33.65
2022-08-10T20:57:55.282Z,34.38
2022-08-10T21:00:22.971Z,34.36
2022-08-10T21:02:59.676Z,34.36
2022-08-10T21:05:52.616Z,34.89
2022-08-10T21:08:31.566Z,34.72
2022-08-10T21:11:08.642Z,34.63
2022-08-10T21:14:01.737Z,35.10
2022-08-10T21:16:49.717Z,34.46
2022-08-10T21:19:55.599Z,34.18
2022-08-10T21:22:29.090Z,34.38
2022-08-10T21:25:05.290Z,33.67
2022-08-10T21:27:59.297Z,34.65
2022-08-10T21:30:34.985Z,34.46
2022-08-10T21:33:28.973Z,34.80
2022-08-10T21:36:17.837Z,34.78
2022-08-10T21:39:10.113Z,35.04
2022-08-10T21:42:04.736Z,35.16
2022-08-10T21:45:16.897Z,34.94
2022-08-10T21:48:07.024Z,35.16
2022-08-10T21:51:24.697Z,35.51
2022-08-10T21:54:33.903Z,35.64
2022-08-10T21:57:46.076Z,36.34
2022-08-10T22:00:34.922Z,35.41
2022-08-10T22:03:25.097Z,35.91
2022-08-10T22:06:28.145Z,35.76
2022-08-10T22:09:27.694Z,35.91
2022-08-10T22:12:31.573Z,36.14
2022-08-10T22:15:24.309Z,36.07
2022-08-10T22:18:31.338Z,36.04
2022-08-10T22:21:29.211Z,36.19
2022-08-10T22:24:46.462Z,36.30
2022-08-10T22:27:50.026Z,36.06
2022-08-10T22:30:37.478Z,36.32
2022-08-10T22:33:40.379Z,36.54
2022-08-10T22:36:55.623Z,36.44
2022-08-10T22:40:13.508Z,37.18
2022-08-10T22:43:11.036Z,36.45
2022-08-10T22:46:07.977Z,36.56
2022-08-10T22:49:00.445Z,36.68
2022-08-10T22:51:43.544Z,36.84
2022-08-10T22:54:51.843Z,36.87
2022-08-10T22:57:37.658Z,37.01
2022-08-10T23:00:10.945Z,37.17
2022-08-10T23:02:53.114Z,36.79
2022-08-10T23:05:32.755Z,37.02
2022-08-10T23:08:19.526Z,37.35
2022-08-10T23:11:05.449Z,37.17
2022-08-10T23:13:36.912Z,37.10
2022-08-10T23:16:23.702Z,37.16
2022-08-10T23:19:11.930Z,37.40
2022-08-10T23:22:09.244Z,38.06
2022-08-10T23:24:42.055Z,37.68
2022-08-10T23:27:37.832Z,37.62
2022-08-10T23:30:17.668Z,37.77
2022-08-10T23:32:54.062Z,37.63
2022-08-10T23:36:31.735Z,37.79
2022-08-10T23:38:14.163Z,37.79
2022-08-10T23:40:46.611Z,38.00
2022-08-10T23:43:19.227Z,38.16
2022-08-10T23:45:54.416Z,38.23
2022-08-10T23:48:34.220Z,38.40
2022-08-10T23:51:16.438Z,38.46
2022-08-10T23:53:47.057Z,38.52
2022-08-10T23:56:20.120Z,38.66
2022-08-10T23:58:49.298Z,38.92
